sensor_id;sensor_type;location;lat;lon;timestamp;P1;durP1;ratioP1;P2;durP2;ratioP2
2944;SDS011;1482;51.398;7.128;2022-12-18T00:01:22;4.40;;;3.60;;
2944;SDS011;1482;51.398;7.128;2022-12-18T00:03:49;6.77;;;5.70;;
2944;SDS011;1482;51.398;7.128;2022-12-18T00:06:16;5.40;;;4.00;;
2944;SDS011;1482;51.398;7.128;2022-12-18T00:08:42;7.73;;;5.07;;
2944;SDS011;1482;51.398;7.128;2022-12-18T00:11:10;9.77;;;4.53;;
2944;SDS011;1482;51.398;7.128;2022-12-18T00:13:37;6.00;;;3.30;;
2944;SDS011;1482;51.398;7.128;2022-12-18T00:16:04;9.73;;;3.63;;
2944;SDS011;1482;51.398;7.128;2022-12-18T00:18:31;5.57;;;3.50;;
2944;SDS011;1482;51.398;7.128;2022-12-18T00:21:04;7.23;;;4.90;;
2944;SDS011;1482;51.398;7.128;2022-12-18T00:23:32;10.23;;;4.83;;
2944;SDS011;1482;51.398;7.128;2022-12-18T00:26:02;8.77;;;6.03;;
2944;SDS011;1482;51.398;7.128;2022-12-18T00:28:28;7.07;;;4.47;;
2944;SDS011;1482;51.398;7.128;2022-12-18T00:33:26;6.80;;;3.70;;
2944;SDS011;1482;51.398;7.128;2022-12-18T00:35:51;6.07;;;4.37;;
2944;SDS011;1482;51.398;7.128;2022-12-18T00:38:17;7.57;;;5.00;;
2944;SDS011;1482;51.398;7.128;2022-12-18T00:40:42;6.80;;;4.30;;
2944;SDS011;1482;51.398;7.128;2022-12-18T00:43:08;6.10;;;4.60;;
2944;SDS011;1482;51.398;7.128;2022-12-18T00:45:34;5.53;;;3.60;;
2944;SDS011;1482;51.398;7.128;2022-12-18T00:48:00;8.80;;;5.47;;
2944;SDS011;1482;51.398;7.128;2022-12-18T00:50:25;7.63;;;4.20;;
2944;SDS011;1482;51.398;7.128;2022-12-18T00:52:51;5.83;;;3.97;;
2944;SDS011;1482;51.398;7.128;2022-12-18T00:55:17;8.80;;;5.13;;
2944;SDS011;1482;51.398;7.128;2022-12-18T00:57:43;9.53;;;5.00;;
2944;SDS011;1482;51.398;7.128;2022-12-18T01:00:10;6.00;;;4.27;;
2944;SDS011;1482;51.398;7.128;2022-12-18T01:02:37;5.50;;;4.10;;
2944;SDS011;1482;51.398;7.128;2022-12-18T01:05:02;6.57;;;3.70;;
2944;SDS011;1482;51.398;7.128;2022-12-18T01:07:28;6.07;;;4.27;;
2944;SDS011;1482;51.398;7.128;2022-12-18T01:09:54;4.97;;;4.33;;
2944;SDS011;1482;51.398;7.128;2022-12-18T01:12:19;6.13;;;4.50;;
2944;SDS011;1482;51.398;7.128;2022-12-18T01:14:45;6.23;;;4.17;;
2944;SDS011;1482;51.398;7.128;2022-12-18T01:17:11;5.30;;;4.23;;
2944;SDS011;1482;51.398;7.128;2022-12-18T01:19:36;8.03;;;4.60;;
2944;SDS011;1482;51.398;7.128;2022-12-18T01:22:02;6.47;;;3.90;;
2944;SDS011;1482;51.398;7.128;2022-12-18T01:24:27;4.20;;;3.60;;
2944;SDS011;1482;51.398;7.128;2022-12-18T01:26:53;5.60;;;3.93;;
2944;SDS011;1482;51.398;7.128;2022-12-18T01:29:18;7.40;;;4.00;;
2944;SDS011;1482;51.398;7.128;2022-12-18T01:31:44;5.23;;;3.63;;
2944;SDS011;1482;51.398;7.128;2022-12-18T01:34:09;3.53;;;3.20;;
2944;SDS011;1482;51.398;7.128;2022-12-18T01:36:36;5.77;;;3.90;;
2944;SDS011;1482;51.398;7.128;2022-12-18T01:39:05;5.90;;;4.00;;
2944;SDS011;1482;51.398;7.128;2022-12-18T01:41:33;6.80;;;4.30;;
2944;SDS011;1482;51.398;7.128;2022-12-18T01:47:15;4.93;;;3.70;;
2944;SDS011;1482;51.398;7.128;2022-12-18T01:49:50;4.30;;;3.53;;
2944;SDS011;1482;51.398;7.128;2022-12-18T01:52:17;7.50;;;4.90;;
2944;SDS011;1482;51.398;7.128;2022-12-18T01:54:45;5.33;;;4.27;;
2944;SDS011;1482;51.398;7.128;2022-12-18T01:57:11;4.67;;;4.10;;
2944;SDS011;1482;51.398;7.128;2022-12-18T01:59:37;6.37;;;3.90;;
2944;SDS011;1482;51.398;7.128;2022-12-18T02:02:04;5.63;;;4.27;;
2944;SDS011;1482;51.398;7.128;2022-12-18T02:04:31;8.43;;;4.77;;
2944;SDS011;1482;51.398;7.128;2022-12-18T02:09:57;8.50;;;3.43;;
2944;SDS011;1482;51.398;7.128;2022-12-18T02:12:29;8.70;;;4.50;;
2944;SDS011;1482;51.398;7.128;2022-12-18T02:15:17;7.23;;;4.93;;
2944;SDS011;1482;51.398;7.128;2022-12-18T02:17:51;5.77;;;4.23;;
2944;SDS011;1482;51.398;7.128;2022-12-18T02:20:22;12.50;;;3.83;;
2944;SDS011;1482;51.398;7.128;2022-12-18T02:23:06;10.10;;;5.00;;
2944;SDS011;1482;51.398;7.128;2022-12-18T02:26:05;6.60;;;4.93;;
2944;SDS011;1482;51.398;7.128;2022-12-18T02:28:46;6.23;;;4.53;;
2944;SDS011;1482;51.398;7.128;2022-12-18T02:31:24;9.13;;;5.10;;
2944;SDS011;1482;51.398;7.128;2022-12-18T02:33:53;5.20;;;3.70;;
2944;SDS011;1482;51.398;7.128;2022-12-18T02:36:22;4.90;;;3.33;;
2944;SDS011;1482;51.398;7.128;2022-12-18T02:38:50;5.77;;;3.90;;
2944;SDS011;1482;51.398;7.128;2022-12-18T02:41:18;7.30;;;4.70;;
2944;SDS011;1482;51.398;7.128;2022-12-18T02:43:48;9.30;;;5.73;;
2944;SDS011;1482;51.398;7.128;2022-12-18T02:46:28;6.20;;;4.00;;
2944;SDS011;1482;51.398;7.128;2022-12-18T02:49:09;8.00;;;5.30;;
2944;SDS011;1482;51.398;7.128;2022-12-18T03:00:10;7.40;;;4.07;;
2944;SDS011;1482;51.398;7.128;2022-12-18T03:02:45;5.90;;;3.70;;
2944;SDS011;1482;51.398;7.128;2022-12-18T03:05:23;7.70;;;4.40;;
2944;SDS011;1482;51.398;7.128;2022-12-18T03:08:13;5.77;;;3.73;;
2944;SDS011;1482;51.398;7.128;2022-12-18T03:10:48;6.90;;;4.47;;
2944;SDS011;1482;51.398;7.128;2022-12-18T03:13:20;6.27;;;5.17;;
2944;SDS011;1482;51.398;7.128;2022-12-18T03:15:53;4.93;;;3.87;;
2944;SDS011;1482;51.398;7.128;2022-12-18T03:18:23;5.13;;;4.00;;
2944;SDS011;1482;51.398;7.128;2022-12-18T03:20:52;5.67;;;3.77;;
2944;SDS011;1482;51.398;7.128;2022-12-18T03:23:24;4.90;;;4.30;;
2944;SDS011;1482;51.398;7.128;2022-12-18T03:25:54;4.93;;;3.53;;
2944;SDS011;1482;51.398;7.128;2022-12-18T03:28:23;6.50;;;4.03;;
2944;SDS011;1482;51.398;7.128;2022-12-18T03:30:54;6.73;;;4.00;;
2944;SDS011;1482;51.398;7.128;2022-12-18T03:33:27;8.67;;;4.23;;
2944;SDS011;1482;51.398;7.128;2022-12-18T03:36:05;5.47;;;4.70;;
2944;SDS011;1482;51.398;7.128;2022-12-18T03:38:31;5.57;;;4.07;;
2944;SDS011;1482;51.398;7.128;2022-12-18T03:46:47;6.17;;;4.93;;
2944;SDS011;1482;51.398;7.128;2022-12-18T03:52:18;5.30;;;3.70;;
2944;SDS011;1482;51.398;7.128;2022-12-18T03:54:55;4.17;;;3.13;;
2944;SDS011;1482;51.398;7.128;2022-12-18T03:57:24;6.10;;;4.67;;
2944;SDS011;1482;51.398;7.128;2022-12-18T03:59:56;5.67;;;4.20;;
2944;SDS011;1482;51.398;7.128;2022-12-18T04:02:25;5.33;;;4.17;;
2944;SDS011;1482;51.398;7.128;2022-12-18T04:04:52;7.23;;;3.60;;
2944;SDS011;1482;51.398;7.128;2022-12-18T04:07:20;8.80;;;4.50;;
2944;SDS011;1482;51.398;7.128;2022-12-18T04:09:46;5.93;;;4.30;;
2944;SDS011;1482;51.398;7.128;2022-12-18T04:12:13;8.70;;;4.17;;
2944;SDS011;1482;51.398;7.128;2022-12-18T04:14:39;7.37;;;4.07;;
2944;SDS011;1482;51.398;7.128;2022-12-18T04:17:05;6.30;;;3.63;;
2944;SDS011;1482;51.398;7.128;2022-12-18T04:19:30;7.47;;;4.27;;
2944;SDS011;1482;51.398;7.128;2022-12-18T04:21:56;3.80;;;3.13;;
2944;SDS011;1482;51.398;7.128;2022-12-18T04:24:21;5.90;;;3.80;;
2944;SDS011;1482;51.398;7.128;2022-12-18T04:26:47;6.70;;;4.03;;
2944;SDS011;1482;51.398;7.128;2022-12-18T04:29:12;5.80;;;3.97;;
2944;SDS011;1482;51.398;7.128;2022-12-18T04:31:38;4.40;;;3.20;;
2944;SDS011;1482;51.398;7.128;2022-12-18T04:34:03;3.80;;;2.97;;
2944;SDS011;1482;51.398;7.128;2022-12-18T04:36:29;6.37;;;3.10;;
2944;SDS011;1482;51.398;7.128;2022-12-18T04:38:55;5.77;;;3.93;;
2944;SDS011;1482;51.398;7.128;2022-12-18T04:41:20;8.27;;;4.37;;
2944;SDS011;1482;51.398;7.128;2022-12-18T04:43:46;5.00;;;3.33;;
2944;SDS011;1482;51.398;7.128;2022-12-18T04:46:12;5.03;;;3.13;;
2944;SDS011;1482;51.398;7.128;2022-12-18T04:48:37;6.10;;;3.77;;
2944;SDS011;1482;51.398;7.128;2022-12-18T04:51:04;4.57;;;3.13;;
2944;SDS011;1482;51.398;7.128;2022-12-18T04:53:30;4.50;;;3.00;;
2944;SDS011;1482;51.398;7.128;2022-12-18T04:56:09;7.67;;;2.80;;
2944;SDS011;1482;51.398;7.128;2022-12-18T04:58:37;3.53;;;3.20;;
2944;SDS011;1482;51.398;7.128;2022-12-18T05:01:04;3.97;;;3.30;;
2944;SDS011;1482;51.398;7.128;2022-12-18T05:03:30;3.83;;;3.20;;
2944;SDS011;1482;51.398;7.128;2022-12-18T05:05:56;3.10;;;2.60;;
2944;SDS011;1482;51.398;7.128;2022-12-18T05:08:22;6.30;;;3.30;;
2944;SDS011;1482;51.398;7.128;2022-12-18T05:10:48;6.67;;;2.77;;
2944;SDS011;1482;51.398;7.128;2022-12-18T05:13:13;3.77;;;2.50;;
2944;SDS011;1482;51.398;7.128;2022-12-18T05:15:39;7.13;;;3.40;;
2944;SDS011;1482;51.398;7.128;2022-12-18T05:18:04;4.97;;;3.37;;
2944;SDS011;1482;51.398;7.128;2022-12-18T05:20:30;5.50;;;3.20;;
2944;SDS011;1482;51.398;7.128;2022-12-18T05:22:56;4.80;;;3.20;;
2944;SDS011;1482;51.398;7.128;2022-12-18T05:25:22;3.83;;;3.10;;
2944;SDS011;1482;51.398;7.128;2022-12-18T05:27:48;4.50;;;2.73;;
2944;SDS011;1482;51.398;7.128;2022-12-18T05:30:14;5.63;;;3.10;;
2944;SDS011;1482;51.398;7.128;2022-12-18T05:32:40;6.03;;;3.53;;
2944;SDS011;1482;51.398;7.128;2022-12-18T05:35:07;4.20;;;3.10;;
2944;SDS011;1482;51.398;7.128;2022-12-18T05:37:34;4.30;;;2.90;;
2944;SDS011;1482;51.398;7.128;2022-12-18T05:39:59;2.93;;;2.63;;
2944;SDS011;1482;51.398;7.128;2022-12-18T05:42:25;5.50;;;2.73;;
2944;SDS011;1482;51.398;7.128;2022-12-18T05:44:51;6.47;;;3.80;;
2944;SDS011;1482;51.398;7.128;2022-12-18T05:47:16;3.73;;;3.10;;
2944;SDS011;1482;51.398;7.128;2022-12-18T05:49:42;2.90;;;2.40;;
2944;SDS011;1482;51.398;7.128;2022-12-18T05:52:08;3.00;;;2.23;;
2944;SDS011;1482;51.398;7.128;2022-12-18T05:54:34;4.10;;;2.93;;
2944;SDS011;1482;51.398;7.128;2022-12-18T05:56:59;5.37;;;3.20;;
2944;SDS011;1482;51.398;7.128;2022-12-18T05:59:25;8.60;;;3.10;;
2944;SDS011;1482;51.398;7.128;2022-12-18T06:01:50;9.40;;;2.60;;
2944;SDS011;1482;51.398;7.128;2022-12-18T06:04:16;7.83;;;2.80;;
2944;SDS011;1482;51.398;7.128;2022-12-18T06:06:42;4.53;;;2.93;;
2944;SDS011;1482;51.398;7.128;2022-12-18T06:09:07;3.00;;;2.50;;
2944;SDS011;1482;51.398;7.128;2022-12-18T06:11:34;4.27;;;3.00;;
2944;SDS011;1482;51.398;7.128;2022-12-18T06:14:01;6.93;;;2.47;;
2944;SDS011;1482;51.398;7.128;2022-12-18T06:16:28;5.23;;;3.20;;
2944;SDS011;1482;51.398;7.128;2022-12-18T06:19:01;6.20;;;3.23;;
2944;SDS011;1482;51.398;7.128;2022-12-18T06:21:29;3.63;;;2.57;;
2944;SDS011;1482;51.398;7.128;2022-12-18T06:23:55;2.93;;;2.67;;
2944;SDS011;1482;51.398;7.128;2022-12-18T06:26:20;5.37;;;2.60;;
2944;SDS011;1482;51.398;7.128;2022-12-18T06:28:46;5.33;;;2.67;;
2944;SDS011;1482;51.398;7.128;2022-12-18T06:31:11;5.33;;;3.13;;
2944;SDS011;1482;51.398;7.128;2022-12-18T06:33:37;3.67;;;2.23;;
2944;SDS011;1482;51.398;7.128;2022-12-18T06:36:07;4.20;;;3.20;;
2944;SDS011;1482;51.398;7.128;2022-12-18T06:38:35;3.40;;;2.93;;
2944;SDS011;1482;51.398;7.128;2022-12-18T06:43:44;6.30;;;3.50;;
2944;SDS011;1482;51.398;7.128;2022-12-18T06:46:09;4.07;;;3.23;;
2944;SDS011;1482;51.398;7.128;2022-12-18T06:48:35;3.90;;;3.00;;
2944;SDS011;1482;51.398;7.128;2022-12-18T06:51:01;3.37;;;2.83;;
2944;SDS011;1482;51.398;7.128;2022-12-18T06:53:27;5.13;;;3.00;;
2944;SDS011;1482;51.398;7.128;2022-12-18T06:55:59;3.40;;;2.97;;
2944;SDS011;1482;51.398;7.128;2022-12-18T06:58:26;8.67;;;3.23;;
2944;SDS011;1482;51.398;7.128;2022-12-18T07:00:52;3.70;;;2.67;;
2944;SDS011;1482;51.398;7.128;2022-12-18T07:03:17;4.80;;;3.63;;
2944;SDS011;1482;51.398;7.128;2022-12-18T07:05:43;7.97;;;4.10;;
2944;SDS011;1482;51.398;7.128;2022-12-18T07:08:09;8.20;;;5.10;;
2944;SDS011;1482;51.398;7.128;2022-12-18T07:10:40;17.20;;;10.00;;
2944;SDS011;1482;51.398;7.128;2022-12-18T07:13:07;9.80;;;6.83;;
2944;SDS011;1482;51.398;7.128;2022-12-18T07:15:32;8.13;;;6.17;;
2944;SDS011;1482;51.398;7.128;2022-12-18T07:17:58;5.37;;;3.40;;
2944;SDS011;1482;51.398;7.128;2022-12-18T07:20:23;3.60;;;2.80;;
2944;SDS011;1482;51.398;7.128;2022-12-18T07:22:49;7.53;;;3.10;;
2944;SDS011;1482;51.398;7.128;2022-12-18T07:25:14;4.57;;;3.70;;
2944;SDS011;1482;51.398;7.128;2022-12-18T07:27:40;8.70;;;3.83;;
2944;SDS011;1482;51.398;7.128;2022-12-18T07:30:06;4.53;;;3.00;;
2944;SDS011;1482;51.398;7.128;2022-12-18T07:32:32;4.90;;;3.30;;
2944;SDS011;1482;51.398;7.128;2022-12-18T07:34:57;5.20;;;3.10;;
2944;SDS011;1482;51.398;7.128;2022-12-18T07:37:23;4.10;;;3.00;;
2944;SDS011;1482;51.398;7.128;2022-12-18T07:39:48;4.47;;;3.13;;
2944;SDS011;1482;51.398;7.128;2022-12-18T07:42:14;9.63;;;4.17;;
2944;SDS011;1482;51.398;7.128;2022-12-18T07:44:58;6.30;;;3.23;;
2944;SDS011;1482;51.398;7.128;2022-12-18T07:47:24;8.73;;;3.93;;
2944;SDS011;1482;51.398;7.128;2022-12-18T07:49:50;3.73;;;2.87;;
2944;SDS011;1482;51.398;7.128;2022-12-18T07:52:16;4.33;;;3.10;;
2944;SDS011;1482;51.398;7.128;2022-12-18T07:54:42;5.63;;;3.43;;
2944;SDS011;1482;51.398;7.128;2022-12-18T07:57:07;7.70;;;3.90;;
2944;SDS011;1482;51.398;7.128;2022-12-18T07:59:33;6.20;;;3.67;;
2944;SDS011;1482;51.398;7.128;2022-12-18T08:01:59;5.93;;;4.07;;
2944;SDS011;1482;51.398;7.128;2022-12-18T08:04:25;4.37;;;3.77;;
2944;SDS011;1482;51.398;7.128;2022-12-18T08:06:50;6.20;;;3.30;;
2944;SDS011;1482;51.398;7.128;2022-12-18T08:09:16;5.73;;;3.60;;
2944;SDS011;1482;51.398;7.128;2022-12-18T08:11:42;4.10;;;2.73;;
2944;SDS011;1482;51.398;7.128;2022-12-18T08:14:07;4.70;;;3.00;;
2944;SDS011;1482;51.398;7.128;2022-12-18T08:16:33;4.33;;;3.03;;
2944;SDS011;1482;51.398;7.128;2022-12-18T08:18:59;5.10;;;3.57;;
2944;SDS011;1482;51.398;7.128;2022-12-18T08:21:26;5.27;;;3.27;;
2944;SDS011;1482;51.398;7.128;2022-12-18T08:23:54;3.63;;;2.60;;
2944;SDS011;1482;51.398;7.128;2022-12-18T08:26:21;5.90;;;3.43;;
2944;SDS011;1482;51.398;7.128;2022-12-18T08:28:48;4.40;;;2.93;;
2944;SDS011;1482;51.398;7.128;2022-12-18T08:31:14;5.17;;;3.40;;
2944;SDS011;1482;51.398;7.128;2022-12-18T08:33:40;7.03;;;3.60;;
2944;SDS011;1482;51.398;7.128;2022-12-18T08:36:08;4.80;;;3.03;;
2944;SDS011;1482;51.398;7.128;2022-12-18T08:38:34;7.37;;;4.00;;
2944;SDS011;1482;51.398;7.128;2022-12-18T08:41:04;19.37;;;8.23;;
2944;SDS011;1482;51.398;7.128;2022-12-18T08:43:31;9.63;;;4.10;;
2944;SDS011;1482;51.398;7.128;2022-12-18T08:46:17;4.10;;;3.50;;
2944;SDS011;1482;51.398;7.128;2022-12-18T08:48:44;4.10;;;3.50;;
2944;SDS011;1482;51.398;7.128;2022-12-18T08:51:09;5.20;;;3.60;;
2944;SDS011;1482;51.398;7.128;2022-12-18T08:53:36;10.87;;;3.63;;
2944;SDS011;1482;51.398;7.128;2022-12-18T08:56:02;6.47;;;3.77;;
2944;SDS011;1482;51.398;7.128;2022-12-18T08:58:28;4.67;;;3.57;;
2944;SDS011;1482;51.398;7.128;2022-12-18T09:00:53;4.90;;;3.17;;
2944;SDS011;1482;51.398;7.128;2022-12-18T09:03:19;3.80;;;3.07;;
2944;SDS011;1482;51.398;7.128;2022-12-18T09:05:47;4.93;;;3.50;;
2944;SDS011;1482;51.398;7.128;2022-12-18T09:08:13;4.13;;;3.30;;
2944;SDS011;1482;51.398;7.128;2022-12-18T09:10:42;4.97;;;3.50;;
2944;SDS011;1482;51.398;7.128;2022-12-18T09:13:12;3.60;;;3.03;;
2944;SDS011;1482;51.398;7.128;2022-12-18T09:15:41;3.97;;;3.13;;
2944;SDS011;1482;51.398;7.128;2022-12-18T09:18:08;5.27;;;4.40;;
2944;SDS011;1482;51.398;7.128;2022-12-18T09:20:34;4.87;;;3.77;;
2944;SDS011;1482;51.398;7.128;2022-12-18T09:23:01;3.67;;;3.37;;
2944;SDS011;1482;51.398;7.128;2022-12-18T09:25:28;5.57;;;3.20;;
2944;SDS011;1482;51.398;7.128;2022-12-18T09:27:57;3.67;;;2.67;;
2944;SDS011;1482;51.398;7.128;2022-12-18T09:30:40;5.53;;;3.57;;
2944;SDS011;1482;51.398;7.128;2022-12-18T09:33:07;6.30;;;3.43;;
2944;SDS011;1482;51.398;7.128;2022-12-18T09:35:35;4.67;;;4.17;;
2944;SDS011;1482;51.398;7.128;2022-12-18T09:38:04;4.20;;;3.10;;
2944;SDS011;1482;51.398;7.128;2022-12-18T09:40:36;5.87;;;3.50;;
2944;SDS011;1482;51.398;7.128;2022-12-18T09:43:09;5.30;;;3.10;;
2944;SDS011;1482;51.398;7.128;2022-12-18T09:45:50;4.97;;;3.13;;
2944;SDS011;1482;51.398;7.128;2022-12-18T09:48:21;3.57;;;3.20;;
2944;SDS011;1482;51.398;7.128;2022-12-18T09:50:50;3.83;;;2.67;;
2944;SDS011;1482;51.398;7.128;2022-12-18T09:53:23;4.63;;;3.43;;
2944;SDS011;1482;51.398;7.128;2022-12-18T09:55:52;3.20;;;2.90;;
2944;SDS011;1482;51.398;7.128;2022-12-18T09:58:30;8.67;;;3.77;;
2944;SDS011;1482;51.398;7.128;2022-12-18T10:01:00;3.70;;;3.07;;
2944;SDS011;1482;51.398;7.128;2022-12-18T10:03:25;3.40;;;2.67;;
2944;SDS011;1482;51.398;7.128;2022-12-18T10:11:16;2.90;;;2.50;;
2944;SDS011;1482;51.398;7.128;2022-12-18T10:24:57;5.20;;;3.20;;
2944;SDS011;1482;51.398;7.128;2022-12-18T10:27:29;6.50;;;4.00;;
2944;SDS011;1482;51.398;7.128;2022-12-18T10:29:55;4.33;;;2.80;;
2944;SDS011;1482;51.398;7.128;2022-12-18T10:32:23;5.70;;;3.43;;
2944;SDS011;1482;51.398;7.128;2022-12-18T10:34:51;4.97;;;3.57;;
2944;SDS011;1482;51.398;7.128;2022-12-18T10:37:19;4.93;;;3.27;;
2944;SDS011;1482;51.398;7.128;2022-12-18T10:40:10;4.03;;;3.47;;
2944;SDS011;1482;51.398;7.128;2022-12-18T10:42:36;5.43;;;3.33;;
2944;SDS011;1482;51.398;7.128;2022-12-18T10:45:10;3.73;;;2.50;;
2944;SDS011;1482;51.398;7.128;2022-12-18T10:47:46;4.33;;;3.10;;
2944;SDS011;1482;51.398;7.128;2022-12-18T10:52:54;4.60;;;3.70;;
2944;SDS011;1482;51.398;7.128;2022-12-18T10:55:22;3.80;;;2.70;;
2944;SDS011;1482;51.398;7.128;2022-12-18T10:57:48;4.40;;;2.80;;
2944;SDS011;1482;51.398;7.128;2022-12-18T11:02:54;6.33;;;3.87;;
2944;SDS011;1482;51.398;7.128;2022-12-18T11:05:25;6.07;;;3.43;;
2944;SDS011;1482;51.398;7.128;2022-12-18T11:07:51;4.80;;;3.60;;
2944;SDS011;1482;51.398;7.128;2022-12-18T11:10:19;4.10;;;3.40;;
2944;SDS011;1482;51.398;7.128;2022-12-18T11:12:47;5.00;;;3.47;;
2944;SDS011;1482;51.398;7.128;2022-12-18T11:15:46;4.03;;;3.53;;
2944;SDS011;1482;51.398;7.128;2022-12-18T11:18:13;3.53;;;3.23;;
2944;SDS011;1482;51.398;7.128;2022-12-18T11:20:52;5.17;;;3.73;;
2944;SDS011;1482;51.398;7.128;2022-12-18T11:23:21;4.83;;;3.47;;
2944;SDS011;1482;51.398;7.128;2022-12-18T11:25:53;5.63;;;3.50;;
2944;SDS011;1482;51.398;7.128;2022-12-18T11:33:34;5.43;;;3.70;;
2944;SDS011;1482;51.398;7.128;2022-12-18T11:36:02;5.10;;;3.00;;
2944;SDS011;1482;51.398;7.128;2022-12-18T11:38:34;4.83;;;3.10;;
2944;SDS011;1482;51.398;7.128;2022-12-18T11:41:04;5.13;;;3.67;;
2944;SDS011;1482;51.398;7.128;2022-12-18T11:43:58;7.10;;;4.40;;
2944;SDS011;1482;51.398;7.128;2022-12-18T11:49:03;6.10;;;3.67;;
2944;SDS011;1482;51.398;7.128;2022-12-18T11:51:48;5.67;;;3.40;;
2944;SDS011;1482;51.398;7.128;2022-12-18T11:54:18;2.90;;;2.60;;
2944;SDS011;1482;51.398;7.128;2022-12-18T11:56:51;7.03;;;3.93;;
2944;SDS011;1482;51.398;7.128;2022-12-18T11:59:33;5.00;;;3.53;;
2944;SDS011;1482;51.398;7.128;2022-12-18T12:05:01;6.60;;;3.73;;
2944;SDS011;1482;51.398;7.128;2022-12-18T12:07:46;5.23;;;3.43;;
2944;SDS011;1482;51.398;7.128;2022-12-18T12:16:17;5.90;;;3.73;;
2944;SDS011;1482;51.398;7.128;2022-12-18T12:18:56;6.70;;;4.07;;
2944;SDS011;1482;51.398;7.128;2022-12-18T12:24:12;9.40;;;4.70;;
2944;SDS011;1482;51.398;7.128;2022-12-18T12:35:11;6.87;;;4.20;;
2944;SDS011;1482;51.398;7.128;2022-12-18T12:40:35;16.40;;;4.57;;
2944;SDS011;1482;51.398;7.128;2022-12-18T12:43:22;8.20;;;5.40;;
2944;SDS011;1482;51.398;7.128;2022-12-18T12:46:11;5.27;;;3.80;;
2944;SDS011;1482;51.398;7.128;2022-12-18T12:53:48;9.43;;;4.60;;
2944;SDS011;1482;51.398;7.128;2022-12-18T12:56:16;6.30;;;4.60;;
2944;SDS011;1482;51.398;7.128;2022-12-18T13:06:39;8.80;;;4.73;;
2944;SDS011;1482;51.398;7.128;2022-12-18T13:09:36;10.60;;;5.70;;
2944;SDS011;1482;51.398;7.128;2022-12-18T13:15:21;7.43;;;5.20;;
2944;SDS011;1482;51.398;7.128;2022-12-18T13:18:03;12.20;;;7.23;;
2944;SDS011;1482;51.398;7.128;2022-12-18T13:23:01;12.67;;;6.60;;
2944;SDS011;1482;51.398;7.128;2022-12-18T13:25:47;10.00;;;7.00;;
2944;SDS011;1482;51.398;7.128;2022-12-18T13:28:13;8.13;;;5.80;;
2944;SDS011;1482;51.398;7.128;2022-12-18T13:38:37;9.30;;;6.33;;
2944;SDS011;1482;51.398;7.128;2022-12-18T13:41:04;9.57;;;6.23;;
2944;SDS011;1482;51.398;7.128;2022-12-18T13:44:11;16.80;;;6.70;;
2944;SDS011;1482;51.398;7.128;2022-12-18T13:46:57;7.90;;;5.77;;
2944;SDS011;1482;51.398;7.128;2022-12-18T13:49:41;14.80;;;5.90;;
2944;SDS011;1482;51.398;7.128;2022-12-18T13:52:16;10.40;;;6.17;;
2944;SDS011;1482;51.398;7.128;2022-12-18T13:54:45;7.97;;;6.57;;
2944;SDS011;1482;51.398;7.128;2022-12-18T13:57:32;10.20;;;6.40;;
2944;SDS011;1482;51.398;7.128;2022-12-18T14:02:47;13.80;;;7.57;;
2944;SDS011;1482;51.398;7.128;2022-12-18T14:07:55;10.07;;;6.87;;
2944;SDS011;1482;51.398;7.128;2022-12-18T14:10:29;11.73;;;7.93;;
2944;SDS011;1482;51.398;7.128;2022-12-18T14:12:55;9.30;;;6.70;;
2944;SDS011;1482;51.398;7.128;2022-12-18T14:17:52;12.70;;;7.53;;
2944;SDS011;1482;51.398;7.128;2022-12-18T14:20:20;13.57;;;7.80;;
2944;SDS011;1482;51.398;7.128;2022-12-18T14:22:46;13.47;;;8.40;;
2944;SDS011;1482;51.398;7.128;2022-12-18T14:27:43;12.30;;;8.17;;
2944;SDS011;1482;51.398;7.128;2022-12-18T14:32:59;13.10;;;7.00;;
2944;SDS011;1482;51.398;7.128;2022-12-18T14:35:25;11.97;;;8.90;;
2944;SDS011;1482;51.398;7.128;2022-12-18T14:37:51;11.40;;;7.27;;
2944;SDS011;1482;51.398;7.128;2022-12-18T14:40:16;16.53;;;8.50;;
2944;SDS011;1482;51.398;7.128;2022-12-18T14:42:42;17.20;;;8.83;;
2944;SDS011;1482;51.398;7.128;2022-12-18T14:47:59;15.30;;;8.90;;
2944;SDS011;1482;51.398;7.128;2022-12-18T14:50:25;16.40;;;9.43;;
2944;SDS011;1482;51.398;7.128;2022-12-18T14:52:51;14.00;;;7.53;;
2944;SDS011;1482;51.398;7.128;2022-12-18T14:55:17;17.50;;;10.67;;
2944;SDS011;1482;51.398;7.128;2022-12-18T14:57:44;15.83;;;10.50;;
2944;SDS011;1482;51.398;7.128;2022-12-18T15:00:17;12.87;;;8.73;;
2944;SDS011;1482;51.398;7.128;2022-12-18T15:02:45;15.73;;;8.97;;
2944;SDS011;1482;51.398;7.128;2022-12-18T15:07:54;17.57;;;10.00;;
2944;SDS011;1482;51.398;7.128;2022-12-18T15:10:22;15.27;;;9.07;;
2944;SDS011;1482;51.398;7.128;2022-12-18T15:18:02;15.40;;;8.77;;
2944;SDS011;1482;51.398;7.128;2022-12-18T15:20:31;19.70;;;9.70;;
2944;SDS011;1482;51.398;7.128;2022-12-18T15:23:15;15.70;;;9.13;;
2944;SDS011;1482;51.398;7.128;2022-12-18T15:25:57;15.90;;;11.43;;
2944;SDS011;1482;51.398;7.128;2022-12-18T15:28:25;17.30;;;10.40;;
2944;SDS011;1482;51.398;7.128;2022-12-18T15:33:38;14.07;;;8.87;;
2944;SDS011;1482;51.398;7.128;2022-12-18T15:36:12;18.13;;;10.47;;
2944;SDS011;1482;51.398;7.128;2022-12-18T15:38:39;16.13;;;9.50;;
2944;SDS011;1482;51.398;7.128;2022-12-18T15:41:05;15.43;;;8.20;;
2944;SDS011;1482;51.398;7.128;2022-12-18T15:43:32;17.40;;;9.37;;
2944;SDS011;1482;51.398;7.128;2022-12-18T15:46:02;15.10;;;10.20;;
2944;SDS011;1482;51.398;7.128;2022-12-18T15:48:29;17.93;;;10.10;;
2944;SDS011;1482;51.398;7.128;2022-12-18T15:50:55;13.53;;;9.53;;
2944;SDS011;1482;51.398;7.128;2022-12-18T15:53:22;15.03;;;9.10;;
2944;SDS011;1482;51.398;7.128;2022-12-18T15:55:50;14.90;;;9.07;;
2944;SDS011;1482;51.398;7.128;2022-12-18T15:58:34;18.57;;;9.17;;
2944;SDS011;1482;51.398;7.128;2022-12-18T16:00:59;15.33;;;9.37;;
2944;SDS011;1482;51.398;7.128;2022-12-18T16:03:25;14.97;;;9.30;;
2944;SDS011;1482;51.398;7.128;2022-12-18T16:05:51;19.10;;;11.27;;
2944;SDS011;1482;51.398;7.128;2022-12-18T16:08:17;16.83;;;10.97;;
2944;SDS011;1482;51.398;7.128;2022-12-18T16:10:42;19.13;;;11.80;;
2944;SDS011;1482;51.398;7.128;2022-12-18T16:13:11;19.10;;;11.40;;
2944;SDS011;1482;51.398;7.128;2022-12-18T16:15:40;17.20;;;12.77;;
2944;SDS011;1482;51.398;7.128;2022-12-18T16:18:05;19.23;;;11.23;;
2944;SDS011;1482;51.398;7.128;2022-12-18T16:20:31;17.33;;;11.60;;
2944;SDS011;1482;51.398;7.128;2022-12-18T16:22:56;18.10;;;11.30;;
2944;SDS011;1482;51.398;7.128;2022-12-18T16:25:23;17.80;;;10.97;;
2944;SDS011;1482;51.398;7.128;2022-12-18T16:27:53;22.87;;;11.80;;
2944;SDS011;1482;51.398;7.128;2022-12-18T16:30:27;20.40;;;11.20;;
2944;SDS011;1482;51.398;7.128;2022-12-18T16:32:55;17.37;;;9.07;;
2944;SDS011;1482;51.398;7.128;2022-12-18T16:35:22;16.47;;;10.60;;
2944;SDS011;1482;51.398;7.128;2022-12-18T16:37:49;17.30;;;11.27;;
2944;SDS011;1482;51.398;7.128;2022-12-18T16:40:15;20.87;;;12.00;;
2944;SDS011;1482;51.398;7.128;2022-12-18T16:42:42;27.57;;;13.77;;
2944;SDS011;1482;51.398;7.128;2022-12-18T16:45:10;17.87;;;12.20;;
2944;SDS011;1482;51.398;7.128;2022-12-18T16:47:41;19.90;;;12.60;;
2944;SDS011;1482;51.398;7.128;2022-12-18T16:50:07;22.70;;;12.10;;
2944;SDS011;1482;51.398;7.128;2022-12-18T16:52:34;12.57;;;8.73;;
2944;SDS011;1482;51.398;7.128;2022-12-18T16:55:00;21.67;;;11.90;;
2944;SDS011;1482;51.398;7.128;2022-12-18T16:57:26;17.63;;;12.53;;
2944;SDS011;1482;51.398;7.128;2022-12-18T16:59:51;20.10;;;12.37;;
2944;SDS011;1482;51.398;7.128;2022-12-18T17:02:18;19.23;;;13.10;;
2944;SDS011;1482;51.398;7.128;2022-12-18T17:04:45;19.87;;;12.67;;
2944;SDS011;1482;51.398;7.128;2022-12-18T17:07:11;18.40;;;10.90;;
2944;SDS011;1482;51.398;7.128;2022-12-18T17:09:38;21.47;;;13.13;;
2944;SDS011;1482;51.398;7.128;2022-12-18T17:12:03;20.13;;;12.23;;
2944;SDS011;1482;51.398;7.128;2022-12-18T17:14:30;22.83;;;12.57;;
2944;SDS011;1482;51.398;7.128;2022-12-18T17:16:56;21.30;;;12.57;;
2944;SDS011;1482;51.398;7.128;2022-12-18T17:19:24;22.30;;;12.87;;
2944;SDS011;1482;51.398;7.128;2022-12-18T17:21:50;21.00;;;12.13;;
2944;SDS011;1482;51.398;7.128;2022-12-18T17:24:16;21.57;;;13.10;;
2944;SDS011;1482;51.398;7.128;2022-12-18T17:26:42;20.33;;;11.10;;
2944;SDS011;1482;51.398;7.128;2022-12-18T17:29:09;25.20;;;13.47;;
2944;SDS011;1482;51.398;7.128;2022-12-18T17:31:38;14.87;;;7.03;;
2944;SDS011;1482;51.398;7.128;2022-12-18T17:34:03;23.33;;;13.70;;
2944;SDS011;1482;51.398;7.128;2022-12-18T17:36:29;22.93;;;14.30;;